Time;durP1;ratioP1;P1;durP2;ratioP2;P2;SDS_P1;SDS_P2;PMS_P1;PMS_P2;Temp;Humidity;BMP_temperature;BMP_pressure;BME280_temperature;BME280_humidity;BME280_pressure;Samples;Min_cycle;Max_cycle;Signal;HPM_P1;HPM_P2
2021/10/14 00:02:17;;;;;;;13.40;8.40;;;11.90;73.80;;;;;;5077161;28;20181;-89
2021/10/14 00:04:43;;;;;;;11.37;8.73;;;11.80;74.40;;;;;;5078526;28;20163;-90
2021/10/14 00:07:12;;;;;;;17.40;9.17;;;11.90;75.40;;;;;;5077828;28;20639;-91
2021/10/14 00:09:38;;;;;;;13.93;9.03;;;11.90;75.20;;;;;;5080908;28;20200;-89
2021/10/14 00:12:04;;;;;;;14.77;8.33;;;11.90;75.90;;;;;;5086744;28;20165;-91
2021/10/14 00:14:30;;;;;;;13.00;9.07;;;11.80;75.50;;;;;;5082058;28;20176;-90
2021/10/14 00:16:59;;;;;;;13.20;8.47;;;11.80;75.90;;;;;;5088181;28;20521;-87
2021/10/14 00:19:41;;;;;;;14.17;8.30;;;12.00;73.20;;;;;;5089889;28;20180;-91
2021/10/14 00:22:16;;;;;;;12.30;9.00;;;11.90;73.20;;;;;;5093896;28;20172;-91
2021/10/14 00:24:56;;;;;;;13.27;9.00;;;12.00;71.90;;;;;;5096200;28;20152;-91
2021/10/14 00:27:23;;;;;;;18.10;9.17;;;11.90;72.20;;;;;;5091625;28;20182;-91
2021/10/14 00:29:49;;;;;;;11.47;9.23;;;11.90;72.50;;;;;;5090139;28;20212;-92
2021/10/14 00:32:29;;;;;;;14.33;9.20;;;11.80;74.70;;;;;;5096880;28;20251;-91
2021/10/14 00:34:59;;;;;;;14.27;9.47;;;11.80;77.00;;;;;;5081616;28;20567;-91
2021/10/14 00:37:25;;;;;;;15.70;9.53;;;11.80;77.90;;;;;;5080770;28;20694;-91
2021/10/14 00:39:51;;;;;;;12.27;9.17;;;11.90;77.40;;;;;;5086826;28;20215;-88
2021/10/14 00:42:19;;;;;;;17.03;10.10;;;11.90;74.10;;;;;;5092999;28;20160;-91
2021/10/14 00:44:59;;;;;;;13.63;10.13;;;11.90;74.30;;;;;;5098933;28;20220;-85
2021/10/14 00:47:28;;;;;;;16.40;10.60;;;11.90;74.80;;;;;;5089362;28;20624;-91
2021/10/14 00:50:16;;;;;;;14.23;10.23;;;11.90;74.80;;;;;;5085272;28;20707;-91
2021/10/14 00:52:52;;;;;;;15.80;10.57;;;12.00;72.80;;;;;;5087208;28;20250;-89
2021/10/14 00:55:20;;;;;;;15.87;10.20;;;12.00;70.00;;;;;;5080590;28;20172;-90
2021/10/14 00:57:59;;;;;;;18.83;10.53;;;12.10;70.20;;;;;;5077777;28;20168;-91
2021/10/14 01:00:31;;;;;;;15.13;10.13;;;12.10;70.00;;;;;;5077514;28;20205;-91
2021/10/14 01:02:56;;;;;;;17.27;9.73;;;12.10;68.50;;;;;;5084127;28;20174;-90
2021/10/14 01:05:22;;;;;;;16.17;10.80;;;12.00;70.80;;;;;;5088275;28;20162;-90
2021/10/14 01:07:51;;;;;;;14.77;9.40;;;12.00;73.20;;;;;;5079248;28;20159;-91
2021/10/14 01:10:17;;;;;;;16.30;9.97;;;12.00;70.90;;;;;;5078797;28;20207;-92
2021/10/14 01:12:44;;;;;;;15.00;9.10;;;11.90;73.70;;;;;;5092966;28;20149;-89
2021/10/14 01:15:41;;;;;;;14.00;8.97;;;11.70;76.60;;;;;;5097052;28;20169;-86
2021/10/14 01:18:07;;;;;;;15.07;9.77;;;11.70;79.20;;;;;;5097507;28;20180;-86
2021/10/14 01:20:33;;;;;;;13.87;9.37;;;11.70;79.30;;;;;;5098293;28;20220;-91
2021/10/14 01:22:59;;;;;;;15.80;9.70;;;11.70;79.80;;;;;;5093126;28;20203;-91
2021/10/14 01:25:25;;;;;;;13.63;9.77;;;11.70;78.40;;;;;;5076069;28;20178;-91
2021/10/14 01:27:54;;;;;;;13.77;8.90;;;11.60;78.90;;;;;;5096210;28;20156;-89
2021/10/14 01:30:22;;;;;;;15.60;8.90;;;11.60;79.60;;;;;;5087617;28;20192;-90
2021/10/14 01:33:18;;;;;;;15.83;8.77;;;11.60;79.20;;;;;;5091264;28;20188;-91
2021/10/14 01:35:55;;;;;;;12.77;8.87;;;11.60;78.50;;;;;;5093207;28;20169;-90
2021/10/14 01:38:21;;;;;;;12.63;9.07;;;11.70;78.30;;;;;;5096787;28;20188;-87
2021/10/14 01:40:51;;;;;;;14.37;8.47;;;11.70;76.70;;;;;;5086971;28;20200;-90
2021/10/14 01:43:17;;;;;;;17.17;9.50;;;11.60;77.30;;;;;;5098444;28;20176;-88
2021/10/14 01:45:45;;;;;;;13.87;8.77;;;11.70;77.50;;;;;;5095556;28;20253;-90
2021/10/14 01:48:12;;;;;;;14.67;9.17;;;11.60;77.70;;;;;;5089954;28;20246;-90
2021/10/14 01:50:38;;;;;;;15.03;8.77;;;11.60;77.00;;;;;;5083232;28;20173;-89
2021/10/14 01:53:04;;;;;;;12.80;8.77;;;11.60;76.80;;;;;;5078545;28;20663;-90
2021/10/14 01:55:30;;;;;;;12.47;8.80;;;11.60;77.60;;;;;;5086336;28;20180;-91
2021/10/14 01:58:07;;;;;;;11.17;8.47;;;11.60;77.10;;;;;;5093354;28;20181;-84
2021/10/14 02:00:33;;;;;;;16.07;9.37;;;11.70;76.50;;;;;;5082802;28;20173;-89
2021/10/14 02:03:00;;;;;;;15.43;9.07;;;11.60;74.70;;;;;;5096742;28;20161;-91
2021/10/14 02:05:25;;;;;;;13.53;9.30;;;11.60;75.80;;;;;;5095471;28;20250;-91
2021/10/14 02:08:00;;;;;;;17.40;9.07;;;11.60;75.70;;;;;;5078788;28;20181;-91
2021/10/14 02:10:30;;;;;;;11.90;8.37;;;11.60;75.40;;;;;;5080258;28;20171;-91
2021/10/14 02:12:56;;;;;;;12.97;8.23;;;11.70;73.80;;;;;;5079561;28;20177;-91
2021/10/14 02:15:23;;;;;;;15.30;8.60;;;11.90;71.80;;;;;;5075821;28;20530;-89
2021/10/14 02:17:49;;;;;;;11.93;8.20;;;11.80;69.70;;;;;;5087231;28;20179;-90
2021/10/14 02:20:17;;;;;;;13.93;8.80;;;11.70;71.40;;;;;;5084457;28;20180;-91
2021/10/14 02:22:55;;;;;;;15.60;9.13;;;11.70;72.70;;;;;;5080426;28;20258;-90
2021/10/14 02:25:25;;;;;;;13.90;7.97;;;11.80;71.10;;;;;;5075178;28;20179;-91
2021/10/14 02:28:10;;;;;;;12.63;8.07;;;11.80;69.90;;;;;;5075861;28;20164;-91
2021/10/14 02:30:36;;;;;;;11.77;8.77;;;11.90;65.90;;;;;;5079698;28;20196;-91
2021/10/14 02:33:11;;;;;;;13.93;8.27;;;12.00;62.90;;;;;;5074628;28;20176;-91
2021/10/14 02:35:37;;;;;;;12.20;8.13;;;11.90;63.70;;;;;;5074944;28;20203;-91
2021/10/14 02:38:08;;;;;;;16.43;9.43;;;12.00;65.20;;;;;;5075374;28;20621;-91
2021/10/14 02:40:34;;;;;;;13.77;8.70;;;11.90;65.80;;;;;;5073922;28;20246;-90
2021/10/14 02:43:01;;;;;;;14.80;8.30;;;11.90;66.60;;;;;;5075658;28;20172;-90
2021/10/14 02:45:28;;;;;;;10.83;7.97;;;11.70;69.00;;;;;;5076973;28;20535;-91
2021/10/14 02:48:09;;;;;;;13.97;8.60;;;11.70;70.60;;;;;;5074164;28;20172;-91
2021/10/14 02:50:35;;;;;;;12.13;8.17;;;11.60;72.90;;;;;;5077333;28;20215;-89
2021/10/14 02:53:01;;;;;;;13.80;8.80;;;11.70;71.60;;;;;;5076105;28;20200;-90
2021/10/14 02:55:27;;;;;;;14.70;9.13;;;11.70;72.80;;;;;;5077384;28;20180;-89
2021/10/14 02:57:53;;;;;;;13.47;9.33;;;11.70;72.40;;;;;;5076702;28;20171;-91
2021/10/14 03:03:14;;;;;;;14.97;8.90;;;11.80;71.70;;;;;;5076914;28;20636;-90
2021/10/14 03:05:57;;;;;;;11.00;8.27;;;11.80;69.90;;;;;;5075936;28;20172;-92
2021/10/14 03:08:23;;;;;;;14.53;8.83;;;11.80;70.60;;;;;;5077234;28;20287;-91
2021/10/14 03:10:49;;;;;;;13.13;8.70;;;11.70;71.40;;;;;;5080928;28;20207;-91
2021/10/14 03:13:15;;;;;;;14.67;8.70;;;11.70;72.10;;;;;;5101179;28;20163;-91
2021/10/14 03:15:56;;;;;;;11.33;8.07;;;11.70;73.60;;;;;;5092478;28;20176;-91
2021/10/14 03:18:22;;;;;;;14.67;8.87;;;11.70;73.10;;;;;;5088113;28;20171;-92
2021/10/14 03:20:51;;;;;;;15.23;9.30;;;11.70;73.80;;;;;;5081564;28;20566;-92
2021/10/14 03:23:18;;;;;;;14.47;8.73;;;11.80;72.30;;;;;;5082344;28;20176;-92
2021/10/14 03:25:46;;;;;;;12.20;8.57;;;11.80;70.20;;;;;;5082264;28;20298;-91
2021/10/14 03:28:14;;;;;;;15.67;8.77;;;11.60;72.20;;;;;;5080834;28;20232;-92
2021/10/14 03:30:43;;;;;;;13.27;9.13;;;11.90;68.00;;;;;;5086409;28;20191;-91
2021/10/14 03:33:09;;;;;;;12.03;8.63;;;12.00;66.00;;;;;;5101724;28;20148;-91
2021/10/14 03:35:37;;;;;;;13.37;8.67;;;11.90;66.20;;;;;;5092927;28;20682;-93
2021/10/14 03:38:13;;;;;;;12.40;9.10;;;11.90;66.70;;;;;;5087325;28;20631;-93
2021/10/14 03:40:41;;;;;;;13.20;8.37;;;11.90;65.90;;;;;;5081181;28;20179;-93
2021/10/14 03:43:08;;;;;;;12.23;8.30;;;12.00;65.50;;;;;;5084238;28;20205;-93
2021/10/14 03:45:36;;;;;;;13.00;8.60;;;12.10;62.60;;;;;;5068081;28;20236;-93
2021/10/14 03:48:16;;;;;;;12.97;8.80;;;12.10;59.40;;;;;;5081484;28;20192;-91
2021/10/14 03:50:47;;;;;;;12.77;9.17;;;12.20;58.00;;;;;;5087127;28;20642;-91
2021/10/14 03:53:17;;;;;;;12.33;8.73;;;12.00;58.20;;;;;;5079076;28;20664;-91
2021/10/14 03:55:43;;;;;;;13.43;7.70;;;12.00;59.60;;;;;;5087835;28;20200;-92
2021/10/14 03:58:13;;;;;;;14.63;8.50;;;12.10;56.90;;;;;;5084193;28;20184;-90
2021/10/14 04:00:46;;;;;;;15.00;8.57;;;12.10;56.40;;;;;;5081863;28;20160;-91
2021/10/14 04:03:25;;;;;;;12.73;8.00;;;12.00;56.80;;;;;;5089120;28;20172;-88
2021/10/14 04:05:51;;;;;;;12.87;7.37;;;11.90;58.20;;;;;;5097803;28;20169;-87
2021/10/14 04:08:44;;;;;;;11.00;8.23;;;11.80;59.80;;;;;;5096496;28;20200;-90
2021/10/14 04:11:10;;;;;;;11.80;8.03;;;11.70;62.80;;;;;;5080813;28;20252;-92
2021/10/14 04:13:47;;;;;;;12.67;8.63;;;11.70;61.90;;;;;;5086378;28;20169;-92
2021/10/14 04:16:31;;;;;;;13.13;9.00;;;11.70;63.30;;;;;;5085021;28;20172;-90
2021/10/14 04:19:11;;;;;;;12.97;8.60;;;11.70;64.90;;;;;;5090198;28;20174;-90
2021/10/14 04:21:38;;;;;;;15.97;8.10;;;11.60;67.30;;;;;;5093434;28;20176;-93
2021/10/14 04:24:27;;;;;;;12.80;8.57;;;11.60;67.60;;;;;;5083427;28;20162;-91
2021/10/14 04:26:53;;;;;;;13.83;8.23;;;11.50;69.90;;;;;;5098396;28;20161;-89
2021/10/14 04:32:09;;;;;;;14.53;8.60;;;11.50;71.20;;;;;;5085617;28;20194;-90
2021/10/14 04:34:41;;;;;;;13.93;8.70;;;11.50;71.20;;;;;;5081961;28;20161;-90
2021/10/14 04:37:08;;;;;;;14.97;8.23;;;11.40;69.80;;;;;;5085292;28;20184;-90
2021/10/14 04:39:54;;;;;;;15.87;8.63;;;11.50;69.70;;;;;;5100292;28;20160;-85
2021/10/14 04:42:35;;;;;;;12.23;8.00;;;11.40;68.70;;;;;;5098998;28;20183;-86
2021/10/14 04:45:03;;;;;;;14.47;8.17;;;11.40;69.00;;;;;;5097659;28;20172;-91
2021/10/14 04:47:34;;;;;;;14.43;8.77;;;11.40;69.30;;;;;;5086753;28;20168;-88
2021/10/14 04:50:04;;;;;;;12.53;8.87;;;11.40;68.20;;;;;;5072239;28;20215;-88
2021/10/14 04:53:00;;;;;;;16.50;8.40;;;11.40;69.60;;;;;;5082056;28;20188;-91
2021/10/14 04:55:32;;;;;;;14.30;8.40;;;11.40;69.30;;;;;;5099359;28;20231;-82
2021/10/14 04:58:04;;;;;;;13.30;7.67;;;11.40;69.00;;;;;;5092044;28;20169;-92
2021/10/14 05:01:04;;;;;;;12.17;7.80;;;11.40;68.90;;;;;;5081589;28;20566;-86
2021/10/14 05:03:44;;;;;;;14.37;8.43;;;11.40;67.90;;;;;;5084179;28;20148;-92
2021/10/14 05:10:21;;;;;;;10.17;7.27;;;11.30;65.90;;;;;;5079762;28;20575;-90
2021/10/14 05:12:47;;;;;;;11.67;7.17;;;11.40;63.10;;;;;;5081315;28;20763;-90
2021/10/14 05:19:12;;;;;;;11.60;6.77;;;11.40;62.80;;;;;;5078973;28;20191;-91
2021/10/14 05:21:38;;;;;;;14.50;7.30;;;11.40;59.60;;;;;;5080420;28;20188;-89
2021/10/14 05:24:03;;;;;;;10.50;7.00;;;11.40;59.30;;;;;;5081256;28;20637;-91
2021/10/14 05:26:31;;;;;;;9.53;6.83;;;11.30;61.60;;;;;;5082550;28;20243;-90
2021/10/14 05:29:03;;;;;;;8.93;6.70;;;11.30;63.30;;;;;;5082080;28;20196;-90
2021/10/14 05:31:41;;;;;;;11.37;7.47;;;11.20;64.40;;;;;;5090011;28;20216;-89
2021/10/14 05:34:30;;;;;;;11.40;7.27;;;11.40;61.40;;;;;;5071437;28;20181;-89
2021/10/14 05:36:56;;;;;;;9.30;6.30;;;11.40;59.90;;;;;;5085762;28;20174;-90
2021/10/14 05:39:36;;;;;;;11.63;7.10;;;11.40;63.10;;;;;;5076309;28;20247;-91
2021/10/14 05:42:02;;;;;;;17.23;7.30;;;11.30;63.70;;;;;;5076140;28;20544;-85
2021/10/14 05:44:59;;;;;;;12.67;6.70;;;11.40;62.30;;;;;;5077836;28;20972;-89
2021/10/14 05:47:25;;;;;;;12.37;6.97;;;11.40;64.60;;;;;;5091714;28;20164;-82
2021/10/14 05:49:53;;;;;;;11.17;7.00;;;11.30;67.50;;;;;;5085230;28;20195;-86
2021/10/14 05:52:23;;;;;;;11.20;6.63;;;11.30;68.40;;;;;;5087989;28;20180;-89
2021/10/14 05:54:51;;;;;;;13.67;8.47;;;11.30;70.40;;;;;;5087345;28;20556;-91
2021/10/14 05:57:21;;;;;;;10.60;6.97;;;11.30;69.60;;;;;;5085322;28;20148;-80
2021/10/14 05:59:55;;;;;;;12.67;7.37;;;11.30;70.40;;;;;;5099079;28;20172;-81
2021/10/14 06:03:14;;;;;;;10.83;7.83;;;11.30;69.80;;;;;;5095736;28;20177;-83
2021/10/14 06:09:40;;;;;;;14.83;7.73;;;11.20;73.70;;;;;;5094312;28;20227;-88
2021/10/14 06:19:47;;;;;;;15.23;8.00;;;11.10;75.70;;;;;;5077681;28;20164;-80
2021/10/14 06:22:15;;;;;;;14.53;8.57;;;11.00;78.30;;;;;;5072711;28;20184;-94
2021/10/14 06:25:25;;;;;;;14.00;8.17;;;11.00;79.30;;;;;;5111843;28;20192;-84
2021/10/14 06:31:22;;;;;;;15.57;8.80;;;10.80;80.90;;;;;;5110713;28;20195;-90
2021/10/14 06:34:25;;;;;;;15.30;8.80;;;10.90;83.10;;;;;;5105865;28;20194;-90
2021/10/14 06:36:52;;;;;;;16.50;8.60;;;10.90;80.90;;;;;;5107017;28;20634;-96
2021/10/14 06:39:28;;;;;;;15.63;8.93;;;10.90;81.00;;;;;;5112298;28;20216;-91
2021/10/14 06:42:59;;;;;;;16.17;8.27;;;11.00;81.20;;;;;;5114753;28;20230;-89
2021/10/14 06:46:01;;;;;;;15.17;7.93;;;11.00;78.50;;;;;;5117834;28;20187;-93
2021/10/14 06:48:32;;;;;;;14.80;8.63;;;11.10;76.70;;;;;;5118944;28;20231;-96
2021/10/14 06:51:01;;;;;;;14.47;8.30;;;11.20;77.10;;;;;;5116560;28;20215;-96
2021/10/14 06:53:36;;;;;;;15.17;8.53;;;11.10;75.00;;;;;;5118384;28;20199;-90
2021/10/14 06:56:30;;;;;;;15.23;8.23;;;11.10;76.70;;;;;;5116120;28;20175;-96
2021/10/14 06:58:59;;;;;;;15.67;8.67;;;11.00;76.30;;;;;;5113111;28;20194;-95
2021/10/14 07:01:26;;;;;;;12.80;8.13;;;11.20;76.00;;;;;;5113606;28;20167;-96
2021/10/14 07:04:38;;;;;;;11.13;7.40;;;11.20;76.10;;;;;;5108494;28;20157;-95
2021/10/14 07:07:25;;;;;;;14.83;8.27;;;11.20;75.30;;;;;;5110499;28;20202;-84
2021/10/14 07:09:58;;;;;;;12.63;7.80;;;11.20;76.10;;;;;;5117657;28;20191;-85
2021/10/14 07:12:29;;;;;;;16.03;7.77;;;11.20;77.20;;;;;;5117426;27;20255;-94
2021/10/14 07:15:37;;;;;;;16.03;8.80;;;11.30;76.60;;;;;;5111332;28;20183;-94
2021/10/14 07:18:13;;;;;;;11.97;7.53;;;11.20;78.70;;;;;;5117429;28;20171;-81
2021/10/14 07:24:52;;;;;;;13.47;8.57;;;11.20;80.30;;;;;;5116094;28;20182;-90
2021/10/14 07:27:44;;;;;;;14.87;7.60;;;11.20;79.60;;;;;;5116898;28;20223;-96
2021/10/14 07:30:55;;;;;;;17.57;7.60;;;11.20;79.70;;;;;;5113787;28;20222;-95
2021/10/14 07:36:44;;;;;;;14.30;7.93;;;11.10;82.90;;;;;;5117580;28;20206;-88
2021/10/14 07:42:48;;;;;;;12.60;7.50;;;11.30;82.70;;;;;;5115599;28;20181;-88
2021/10/14 07:46:19;;;;;;;14.63;9.67;;;11.40;81.00;;;;;;5099204;28;20225;-88
2021/10/14 07:52:06;;;;;;;13.10;7.50;;;11.70;77.10;;;;;;5053874;28;20215;-96
2021/10/14 07:54:43;;;;;;;13.23;7.90;;;11.70;76.80;;;;;;5054199;28;20223;-96
2021/10/14 07:57:27;;;;;;;14.77;8.20;;;11.90;76.10;;;;;;5047530;28;20265;-93
2021/10/14 07:59:53;;;;;;;16.03;7.43;;;12.00;73.10;;;;;;5044994;28;20176;-90
2021/10/14 08:02:23;;;;;;;12.73;7.67;;;12.10;72.00;;;;;;5049593;28;20723;-83
2021/10/14 08:04:52;;;;;;;11.07;7.23;;;12.10;70.70;;;;;;5035513;28;20177;-83
2021/10/14 08:07:18;;;;;;;10.57;6.67;;;12.20;68.10;;;;;;5042830;28;20166;-76
2021/10/14 08:09:46;;;;;;;14.10;7.80;;;12.20;66.30;;;;;;5076779;28;20225;-81
2021/10/14 08:12:18;;;;;;;11.13;7.10;;;12.20;67.50;;;;;;5121704;28;20165;-76
2021/10/14 08:15:01;;;;;;;11.90;7.20;;;12.20;67.30;;;;;;5121380;28;20152;-81
2021/10/14 08:18:04;;;;;;;12.73;7.67;;;12.20;68.00;;;;;;5121507;28;20187;-82
2021/10/14 08:20:58;;;;;;;11.47;6.87;;;12.20;68.10;;;;;;5121823;28;20164;-81
2021/10/14 08:23:54;;;;;;;13.50;7.03;;;12.30;65.50;;;;;;5120487;28;20166;-81
2021/10/14 08:27:16;;;;;;;10.00;6.90;;;12.40;63.90;;;;;;5120888;28;20155;-79
2021/10/14 08:30:16;;;;;;;13.60;6.43;;;12.50;60.00;;;;;;5121267;28;20208;-80
2021/10/14 08:36:08;;;;;;;10.30;6.80;;;12.30;66.60;;;;;;5100913;28;20179;-92
2021/10/14 08:39:05;;;;;;;13.53;7.10;;;12.50;65.90;;;;;;5072176;28;20207;-87
2021/10/14 08:41:31;;;;;;;11.97;7.03;;;12.60;63.10;;;;;;5072342;28;20177;-95
2021/10/14 08:43:59;;;;;;;11.40;7.30;;;12.70;63.10;;;;;;5067835;28;20160;-93
2021/10/14 08:46:26;;;;;;;14.43;7.10;;;12.80;60.70;;;;;;5069039;28;20179;-91
2021/10/14 08:48:58;;;;;;;12.47;7.53;;;12.80;60.30;;;;;;5049894;28;20248;-89
2021/10/14 08:51:23;;;;;;;13.87;8.03;;;12.80;60.90;;;;;;5068086;28;20165;-92
2021/10/14 08:53:49;;;;;;;13.50;7.17;;;12.90;62.00;;;;;;5069155;28;20202;-90
2021/10/14 08:56:21;;;;;;;9.77;6.27;;;12.90;61.00;;;;;;5067512;28;20171;-92
2021/10/14 08:58:52;;;;;;;11.90;7.67;;;12.90;62.00;;;;;;5074256;28;20221;-79
2021/10/14 09:01:22;;;;;;;10.97;7.03;;;13.00;61.80;;;;;;5082489;28;20176;-88
2021/10/14 09:03:49;;;;;;;11.90;7.23;;;13.00;60.70;;;;;;5084670;28;20198;-93
2021/10/14 09:06:16;;;;;;;14.27;7.77;;;13.00;61.00;;;;;;5067836;28;20228;-86
2021/10/14 09:08:51;;;;;;;11.53;7.37;;;13.10;60.90;;;;;;5086210;28;20249;-85
2021/10/14 09:11:24;;;;;;;10.23;6.87;;;13.10;61.00;;;;;;5087141;28;20601;-77
2021/10/14 09:14:04;;;;;;;9.07;7.13;;;13.10;60.00;;;;;;5085412;28;20169;-78
2021/10/14 09:16:39;;;;;;;9.77;6.63;;;13.20;59.90;;;;;;5065993;28;20271;-89
2021/10/14 09:19:19;;;;;;;14.20;7.67;;;13.30;58.80;;;;;;5082651;28;20194;-86
2021/10/14 09:21:51;;;;;;;13.77;7.27;;;13.20;61.70;;;;;;5084121;28;20246;-80
2021/10/14 09:24:36;;;;;;;9.57;7.30;;;13.30;60.00;;;;;;5087058;28;20197;-87
2021/10/14 09:27:07;;;;;;;14.23;8.13;;;13.40;60.10;;;;;;5079839;28;20773;-78
2021/10/14 09:29:37;;;;;;;11.50;6.63;;;13.40;58.50;;;;;;5071974;28;20214;-78
2021/10/14 09:32:15;;;;;;;9.70;6.93;;;13.50;58.40;;;;;;5074846;28;20161;-80
2021/10/14 09:34:43;;;;;;;10.50;7.60;;;13.60;57.40;;;;;;5074124;28;20229;-85
2021/10/14 09:37:19;;;;;;;11.87;7.40;;;13.60;57.80;;;;;;5076029;28;20184;-82
2021/10/14 09:40:14;;;;;;;12.20;7.13;;;13.70;57.40;;;;;;5070609;28;20188;-78
2021/10/14 09:42:56;;;;;;;11.17;8.03;;;13.70;54.00;;;;;;5058414;28;20187;-78
2021/10/14 09:45:37;;;;;;;17.20;13.50;;;13.90;52.50;;;;;;5072840;28;20297;-78
2021/10/14 09:48:12;;;;;;;13.50;8.23;;;13.80;53.80;;;;;;5072950;28;20190;-77
2021/10/14 09:50:46;;;;;;;12.40;7.87;;;13.90;55.00;;;;;;5073489;28;20186;-77
2021/10/14 09:53:17;;;;;;;12.80;7.43;;;13.80;52.50;;;;;;5073504;28;20192;-76
2021/10/14 09:55:45;;;;;;;14.37;8.27;;;13.70;54.30;;;;;;5072541;28;20189;-80
2021/10/14 09:58:12;;;;;;;10.97;7.17;;;13.80;55.30;;;;;;5075663;28;20188;-76
2021/10/14 10:00:47;;;;;;;10.47;7.30;;;13.90;53.20;;;;;;5077459;28;20157;-85
2021/10/14 10:03:25;;;;;;;11.83;7.67;;;14.00;50.70;;;;;;5077811;28;20206;-78
2021/10/14 10:06:32;;;;;;;12.30;8.83;;;13.90;53.10;;;;;;5075636;28;20152;-78
2021/10/14 10:09:15;;;;;;;12.30;8.03;;;14.10;50.70;;;;;;5066944;28;20561;-91
2021/10/14 10:11:52;;;;;;;28.97;24.03;;;14.00;53.50;;;;;;5071268;28;20206;-82
2021/10/14 10:14:22;;;;;;;9.63;7.37;;;13.90;54.90;;;;;;5069669;28;20226;-86
2021/10/14 10:17:08;;;;;;;12.87;7.33;;;14.00;53.60;;;;;;5068667;28;20184;-90
2021/10/14 10:19:50;;;;;;;12.03;8.00;;;14.10;51.80;;;;;;5065674;28;20263;-88
2021/10/14 10:22:58;;;;;;;13.50;7.50;;;14.10;52.70;;;;;;5071162;28;20169;-83
2021/10/14 10:25:23;;;;;;;10.00;7.17;;;14.40;48.30;;;;;;5069896;28;20177;-82
2021/10/14 10:27:57;;;;;;;14.10;9.57;;;14.40;46.80;;;;;;5080156;28;20251;-85
2021/10/14 10:30:39;;;;;;;11.53;7.53;;;14.30;52.60;;;;;;5069497;28;20294;-93
2021/10/14 10:33:09;;;;;;;12.73;7.80;;;14.20;53.10;;;;;;5073133;28;20219;-90
2021/10/14 10:35:49;;;;;;;10.27;7.83;;;14.30;53.60;;;;;;5069314;28;20161;-78
2021/10/14 10:38:19;;;;;;;14.27;8.53;;;14.40;52.70;;;;;;5071770;28;20210;-87
2021/10/14 10:40:49;;;;;;;10.97;7.97;;;14.40;52.20;;;;;;5074430;28;20168;-79
2021/10/14 10:43:30;;;;;;;16.17;8.10;;;14.40;52.90;;;;;;5072875;28;20171;-81
2021/10/14 10:46:26;;;;;;;13.93;8.67;;;14.40;53.50;;;;;;5073011;28;20238;-84
2021/10/14 10:48:52;;;;;;;14.37;8.23;;;14.40;55.40;;;;;;5074483;28;20192;-78
2021/10/14 10:51:32;;;;;;;12.40;9.43;;;14.30;57.70;;;;;;5074728;28;20148;-79
2021/10/14 10:54:53;;;;;;;13.70;9.30;;;14.40;56.40;;;;;;5076463;28;20192;-78
2021/10/14 10:57:56;;;;;;;11.17;7.77;;;14.50;56.20;;;;;;5073814;28;20181;-79
2021/10/14 11:00:23;;;;;;;12.17;8.30;;;14.30;57.10;;;;;;5074209;28;20259;-79
2021/10/14 11:03:08;;;;;;;9.93;7.93;;;14.30;59.50;;;;;;5075827;28;20238;-86
2021/10/14 11:06:09;;;;;;;12.23;8.50;;;14.40;59.10;;;;;;5077324;28;20147;-80
2021/10/14 11:08:41;;;;;;;15.37;11.10;;;14.50;57.50;;;;;;5093456;28;20205;-78
2021/10/14 11:11:18;;;;;;;10.87;8.37;;;14.50;56.50;;;;;;5075738;28;20173;-78
2021/10/14 11:13:53;;;;;;;14.00;8.70;;;14.60;57.00;;;;;;5071508;28;20169;-81
2021/10/14 11:16:27;;;;;;;10.17;8.17;;;14.50;54.50;;;;;;5070094;28;20160;-78
2021/10/14 11:18:56;;;;;;;11.53;8.30;;;14.50;53.10;;;;;;5049671;28;20229;-80
2021/10/14 11:24:45;;;;;;;10.30;8.23;;;14.50;52.00;;;;;;5071463;28;20157;-92
2021/10/14 11:27:40;;;;;;;12.77;8.23;;;14.50;51.60;;;;;;5104731;28;20179;-87
2021/10/14 11:30:19;;;;;;;10.77;8.27;;;14.60;50.90;;;;;;5112964;28;20201;-78
2021/10/14 11:33:08;;;;;;;12.43;8.30;;;14.60;49.40;;;;;;5117775;28;20167;-80
2021/10/14 11:36:00;;;;;;;15.00;8.83;;;14.60;49.70;;;;;;5117215;28;20178;-82
2021/10/14 11:38:57;;;;;;;14.60;8.17;;;14.80;48.40;;;;;;5116907;28;20186;-79
2021/10/14 11:42:08;;;;;;;13.23;7.50;;;14.60;49.80;;;;;;5114720;28;20181;-85
2021/10/14 11:44:44;;;;;;;12.60;7.93;;;14.50;52.30;;;;;;5111611;28;20160;-89
2021/10/14 11:47:22;;;;;;;14.17;8.10;;;14.50;53.00;;;;;;5093330;28;20180;-92
2021/10/14 11:50:19;;;;;;;13.50;7.90;;;14.50;51.80;;;;;;5090952;28;20276;-90
2021/10/14 11:53:02;;;;;;;13.33;7.77;;;14.60;53.40;;;;;;5099589;28;20202;-87
2021/10/14 11:55:30;;;;;;;11.40;7.40;;;14.50;50.80;;;;;;5116920;28;20175;-86
2021/10/14 11:58:03;;;;;;;14.07;8.10;;;14.70;50.90;;;;;;5119896;28;20197;-88
2021/10/14 12:00:30;;;;;;;11.53;7.67;;;14.60;50.30;;;;;;5101528;28;20186;-90
2021/10/14 12:03:04;;;;;;;13.33;7.13;;;14.70;49.90;;;;;;5121318;28;20143;-91
2021/10/14 12:05:32;;;;;;;13.77;8.50;;;14.60;49.70;;;;;;5103054;28;20157;-92
2021/10/14 12:07:59;;;;;;;11.47;7.60;;;14.70;48.90;;;;;;5101178;28;20239;-91
2021/10/14 12:10:38;;;;;;;13.07;8.03;;;14.70;46.30;;;;;;5096444;28;20221;-95
2021/10/14 12:13:14;;;;;;;9.53;7.37;;;14.70;46.00;;;;;;5112546;28;20200;-92
2021/10/14 12:15:40;;;;;;;14.30;8.23;;;14.80;44.50;;;;;;5094413;28;20172;-91
2021/10/14 12:18:26;;;;;;;12.50;7.70;;;14.80;43.70;;;;;;5111301;28;20193;-91
2021/10/14 12:20:53;;;;;;;12.90;8.03;;;14.70;46.00;;;;;;5092845;28;20331;-90
2021/10/14 12:23:26;;;;;;;13.87;8.20;;;14.80;45.80;;;;;;5105180;28;20166;-90
2021/10/14 12:26:07;;;;;;;12.60;8.67;;;14.80;42.60;;;;;;5070051;28;20187;-92
2021/10/14 12:28:43;;;;;;;11.27;7.20;;;14.80;45.80;;;;;;5104883;28;20210;-92
2021/10/14 12:31:15;;;;;;;12.13;8.43;;;14.80;45.00;;;;;;5087723;28;20182;-87
2021/10/14 12:33:41;;;;;;;12.03;7.47;;;14.70;42.20;;;;;;5092580;28;20181;-93
2021/10/14 12:36:08;;;;;;;10.87;8.07;;;14.60;45.50;;;;;;5088802;28;20710;-91
2021/10/14 12:38:39;;;;;;;11.67;8.10;;;14.60;46.70;;;;;;5083849;28;20230;-82
2021/10/14 12:41:17;;;;;;;13.73;8.00;;;14.60;46.20;;;;;;5118364;28;20182;-80
2021/10/14 12:43:55;;;;;;;13.23;8.50;;;14.60;46.00;;;;;;5129821;28;20207;-94
2021/10/14 12:46:57;;;;;;;12.30;7.63;;;14.70;45.90;;;;;;5134783;28;20138;-92
2021/10/14 12:50:00;;;;;;;13.33;7.60;;;14.60;46.40;;;;;;5134529;28;20231;-87
2021/10/14 12:53:03;;;;;;;13.87;7.77;;;14.70;47.50;;;;;;5133664;28;20172;-90
2021/10/14 12:55:29;;;;;;;10.33;7.20;;;14.60;48.90;;;;;;5114084;28;20182;-92
2021/10/14 12:58:51;;;;;;;11.93;7.40;;;14.80;46.70;;;;;;5141017;28;20166;-83
2021/10/14 13:01:29;;;;;;;10.97;7.63;;;14.80;46.20;;;;;;5122431;28;20165;-84
2021/10/14 13:07:16;;;;;;;13.27;7.53;;;14.90;44.30;;;;;;5129756;28;20189;-94
2021/10/14 13:09:43;;;;;;;14.13;8.20;;;15.00;42.00;;;;;;5127315;28;20206;-96
2021/10/14 13:12:09;;;;;;;11.43;7.60;;;15.00;41.50;;;;;;5121844;28;20224;-93
2021/10/14 13:14:38;;;;;;;10.77;7.87;;;15.00;42.10;;;;;;5136105;28;20171;-96
2021/10/14 13:17:07;;;;;;;15.50;7.73;;;15.20;40.40;;;;;;5112571;28;20175;-95
2021/10/14 13:19:33;;;;;;;12.83;7.20;;;14.90;43.50;;;;;;5118268;28;20163;-94
2021/10/14 13:21:59;;;;;;;12.33;7.80;;;14.90;43.50;;;;;;5119929;28;20174;-92
2021/10/14 13:24:27;;;;;;;10.93;8.10;;;15.00;44.20;;;;;;5117727;28;20182;-96
2021/10/14 13:27:03;;;;;;;10.90;8.20;;;15.10;43.50;;;;;;5136559;27;20171;-86
2021/10/14 13:29:30;;;;;;;15.07;7.83;;;15.30;44.80;;;;;;5118394;28;20202;-94
2021/10/14 13:31:56;;;;;;;12.37;8.07;;;15.10;45.40;;;;;;5122263;27;20159;-87
2021/10/14 13:34:25;;;;;;;11.33;7.63;;;15.00;44.70;;;;;;5139885;27;20184;-86
2021/10/14 13:36:52;;;;;;;14.77;8.80;;;14.90;47.10;;;;;;5140261;27;20240;-89
2021/10/14 13:39:18;;;;;;;13.17;8.70;;;15.10;44.50;;;;;;5140315;27;20177;-85
2021/10/14 13:41:44;;;;;;;12.50;9.00;;;15.20;43.30;;;;;;5140400;27;20147;-92
2021/10/14 13:44:30;;;;;;;12.77;8.20;;;15.10;44.80;;;;;;5136803;27;20173;-96
2021/10/14 13:47:22;;;;;;;12.03;8.17;;;14.90;46.90;;;;;;5128012;28;20175;-88
2021/10/14 13:49:53;;;;;;;11.93;8.53;;;15.10;45.20;;;;;;5131499;28;20215;-93
2021/10/14 13:52:23;;;;;;;12.57;8.93;;;15.30;42.70;;;;;;5125294;28;20190;-95
2021/10/14 13:54:49;;;;;;;13.07;8.00;;;15.20;42.30;;;;;;5112990;28;20160;-93
2021/10/14 13:57:15;;;;;;;12.60;8.47;;;15.30;39.00;;;;;;5129344;28;20332;-86
2021/10/14 13:59:50;;;;;;;12.43;8.20;;;15.50;38.30;;;;;;5124338;28;20167;-96
2021/10/14 14:02:20;;;;;;;16.43;8.70;;;15.30;38.30;;;;;;5108410;28;20181;-87
2021/10/14 14:04:51;;;;;;;11.73;8.37;;;15.20;41.50;;;;;;5125375;28;20178;-82
2021/10/14 14:07:29;;;;;;;12.73;8.53;;;15.20;40.00;;;;;;5123827;27;20170;-96
2021/10/14 14:09:58;;;;;;;13.20;8.80;;;15.30;37.70;;;;;;5125912;28;20638;-96
2021/10/14 14:12:29;;;;;;;12.67;8.40;;;15.30;40.80;;;;;;5126191;28;20159;-82